Terminal Aerodrome Forecast
Issued by NWS

Home | Current Version | Previous Version | Text Only | Print | Product List | Glossary On
Versions: 1 2 3 4 5 6 7 8 9 10 11 12 13 14 15 16 17 18
835
FTPA31 PHFO 291137
TAFHKO
TAF
PHKO 291137Z 2912/3012 20010KT P6SM VCSH SCT025 BKN050
      TEMPO 2912/2915 -RA BKN025
     FM291500 VRB03KT P6SM SCT025 SCT050
     FM292000 22012KT P6SM SCT030 BKN050
     FM300700 15008KT P6SM SCT025 BKN050
     FM301100 07010KT P6SM SCT025 SCT050=

USA.gov is the U.S. government's official web portal to all federal, state and local government web resources and services.